createdAt,value
2023-01-21T00:01:51.154Z,94.32
2023-01-21T00:04:19.898Z,94.31
2023-01-21T00:06:49.351Z,94.08
2023-01-21T00:09:18.138Z,93.94
2023-01-21T00:11:46.636Z,93.88
2023-01-21T00:14:15.407Z,93.84
2023-01-21T00:16:44.056Z,93.51
2023-01-21T00:19:12.534Z,93.41
2023-01-21T00:21:41.192Z,93.24
2023-01-21T00:24:10.571Z,93.39
2023-01-21T00:26:39.258Z,93.27
2023-01-21T00:29:08.142Z,93.22
2023-01-21T00:31:36.946Z,93.10
2023-01-21T00:34:05.822Z,93.18
2023-01-21T00:36:34.405Z,93.27
2023-01-21T00:39:03.066Z,93.40
2023-01-21T00:41:31.678Z,93.31
2023-01-21T00:44:00.211Z,93.44
2023-01-21T00:46:29.008Z,93.38
2023-01-21T00:48:57.513Z,93.52
2023-01-21T00:51:26.552Z,93.84
2023-01-21T00:53:55.245Z,93.92
2023-01-21T00:56:24.066Z,94.09
2023-01-21T00:58:52.900Z,94.17
2023-01-21T01:01:22.928Z,94.24
2023-01-21T01:03:51.765Z,94.10
2023-01-21T01:06:23.769Z,94.34
2023-01-21T01:08:52.855Z,94.70
2023-01-21T01:11:21.829Z,94.47
2023-01-21T01:13:50.390Z,94.58
2023-01-21T01:16:19.413Z,94.59
2023-01-21T01:18:49.046Z,94.61
2023-01-21T01:21:20.253Z,94.99
2023-01-21T01:23:52.380Z,95.07
2023-01-21T01:26:22.671Z,95.21
2023-01-21T01:28:51.708Z,95.52
2023-01-21T01:31:21.380Z,95.56
2023-01-21T01:33:50.128Z,95.82
2023-01-21T01:36:23.808Z,95.86
2023-01-21T01:38:53.957Z,96.26
2023-01-21T01:41:27.690Z,96.18
2023-01-21T01:44:02.761Z,96.02
2023-01-21T01:46:37.298Z,96.07
2023-01-21T01:49:16.472Z,96.08
2023-01-21T01:51:47.739Z,95.96
2023-01-21T01:54:23.601Z,95.68
2023-01-21T01:56:56.484Z,95.57
2023-01-21T01:59:25.315Z,95.61
2023-01-21T02:01:54.307Z,95.53
2023-01-21T02:04:30.104Z,95.49
2023-01-21T02:06:58.832Z,95.48
2023-01-21T02:09:30.128Z,95.30
2023-01-21T02:12:05.537Z,95.15
2023-01-21T02:14:42.973Z,95.02
2023-01-21T02:17:51.631Z,94.91
2023-01-21T02:21:17.774Z,94.74
2023-01-21T02:24:32.232Z,94.75
2023-01-21T02:27:19.112Z,94.67
2023-01-21T02:30:33.909Z,94.58
2023-01-21T02:33:16.361Z,94.57
2023-01-21T02:36:10.497Z,94.79
2023-01-21T02:39:01.915Z,94.90
2023-01-21T02:42:24.363Z,95.02
2023-01-21T02:45:15.676Z,95.13
2023-01-21T02:48:17.755Z,95.27
2023-01-21T02:50:50.883Z,94.83
2023-01-21T02:53:32.253Z,94.66
2023-01-21T02:56:14.706Z,94.58
2023-01-21T02:58:50.282Z,94.98
2023-01-21T03:01:46.680Z,94.62
2023-01-21T03:05:07.280Z,94.73
2023-01-21T03:08:07.209Z,94.64
2023-01-21T03:11:01.605Z,94.79
2023-01-21T03:14:02.309Z,94.74
2023-01-21T03:16:58.082Z,94.89
2023-01-21T03:19:55.108Z,94.22
2023-01-21T03:22:28.865Z,93.09
2023-01-21T03:24:59.965Z,92.27
2023-01-21T03:27:32.778Z,91.05
2023-01-21T03:30:13.635Z,90.54
2023-01-21T03:32:45.731Z,89.99
2023-01-21T03:35:21.155Z,89.71
2023-01-21T03:38:04.220Z,89.81
2023-01-21T03:41:21.689Z,89.40
2023-01-21T03:43:52.208Z,88.43
2023-01-21T03:46:44.426Z,88.03
2023-01-21T03:49:58.240Z,86.40
2023-01-21T03:52:27.944Z,86.92
2023-01-21T03:54:56.760Z,86.27
2023-01-21T03:57:25.290Z,85.51
2023-01-21T03:59:54.499Z,84.98
2023-01-21T04:02:23.191Z,85.12
2023-01-21T04:04:53.386Z,85.57
2023-01-21T04:07:22.073Z,85.32
2023-01-21T04:09:50.828Z,84.12
2023-01-21T04:12:19.409Z,85.00
2023-01-21T04:14:48.002Z,84.50
2023-01-21T04:17:16.574Z,83.39
2023-01-21T04:19:45.135Z,83.64
2023-01-21T04:22:14.261Z,83.42
2023-01-21T04:24:42.935Z,83.54
2023-01-21T04:27:11.561Z,83.17
2023-01-21T04:29:40.297Z,83.34
2023-01-21T04:32:08.885Z,83.05
2023-01-21T04:34:37.467Z,83.47
2023-01-21T04:37:06.228Z,83.56
2023-01-21T04:39:34.801Z,82.91
2023-01-21T04:42:03.563Z,83.58
2023-01-21T04:44:32.987Z,83.33
2023-01-21T04:47:01.880Z,83.53
2023-01-21T04:49:30.676Z,83.96
2023-01-21T04:51:59.403Z,83.84
2023-01-21T04:54:28.458Z,84.28
2023-01-21T04:56:57.265Z,84.31
2023-01-21T04:59:25.926Z,83.80
2023-01-21T05:01:54.640Z,83.49
2023-01-21T05:04:23.345Z,83.91
2023-01-21T05:06:51.861Z,84.15
2023-01-21T05:09:20.486Z,84.05
2023-01-21T05:11:49.248Z,84.11
2023-01-21T05:14:17.916Z,84.26
2023-01-21T05:16:46.682Z,84.21
2023-01-21T05:19:15.572Z,84.26
2023-01-21T05:21:44.195Z,84.24
2023-01-21T05:24:12.921Z,84.29
2023-01-21T05:26:41.722Z,84.11
2023-01-21T05:29:10.946Z,83.97
2023-01-21T05:31:39.650Z,84.59
2023-01-21T05:34:08.608Z,84.79
2023-01-21T05:36:37.671Z,85.00
2023-01-21T05:39:06.293Z,85.46
2023-01-21T05:41:34.993Z,85.06
2023-01-21T05:44:03.721Z,84.94
2023-01-21T05:46:32.525Z,85.27
2023-01-21T05:49:01.234Z,84.54
2023-01-21T05:51:29.851Z,84.59
2023-01-21T05:53:58.440Z,84.69
2023-01-21T05:56:27.068Z,85.11
2023-01-21T05:58:55.800Z,85.35
2023-01-21T06:01:24.515Z,85.36
2023-01-21T06:03:53.187Z,85.59
2023-01-21T06:06:22.032Z,85.47
2023-01-21T06:08:50.928Z,85.41
2023-01-21T06:11:19.516Z,85.23
2023-01-21T06:13:48.038Z,85.31
2023-01-21T06:16:16.755Z,85.66
2023-01-21T06:18:45.458Z,85.21
2023-01-21T06:21:14.171Z,84.52
2023-01-21T06:23:43.030Z,84.17
2023-01-21T06:26:11.675Z,84.30
2023-01-21T06:28:40.227Z,83.54
2023-01-21T06:31:09.011Z,83.53
2023-01-21T06:33:37.879Z,83.39
2023-01-21T06:36:06.960Z,83.23
2023-01-21T06:38:36.331Z,82.73
2023-01-21T06:41:05.324Z,82.46
2023-01-21T06:43:33.894Z,81.88
2023-01-21T06:46:02.494Z,81.95
2023-01-21T06:48:31.284Z,81.36
2023-01-21T06:51:03.480Z,81.99
2023-01-21T06:53:32.204Z,82.16
2023-01-21T06:56:00.908Z,81.19
2023-01-21T06:58:29.536Z,80.01
2023-01-21T07:00:58.330Z,79.16
2023-01-21T07:03:27.002Z,80.04
2023-01-21T07:05:55.593Z,79.39
2023-01-21T07:08:24.270Z,79.47
2023-01-21T07:10:52.950Z,79.84
2023-01-21T07:13:21.535Z,79.78
2023-01-21T07:15:50.230Z,79.50
2023-01-21T07:18:19.598Z,78.99
2023-01-21T07:20:48.259Z,79.02
2023-01-21T07:23:16.886Z,79.01
2023-01-21T07:25:46.097Z,78.76
2023-01-21T07:28:14.892Z,79.31
2023-01-21T07:30:43.857Z,79.03
2023-01-21T07:33:12.713Z,78.54
2023-01-21T07:35:41.828Z,78.61
2023-01-21T07:38:10.443Z,77.88
2023-01-21T07:40:39.011Z,78.31
2023-01-21T07:43:08.937Z,77.21
2023-01-21T07:45:37.531Z,77.44
2023-01-21T07:48:06.428Z,76.91
2023-01-21T07:50:35.386Z,75.64
2023-01-21T07:53:04.936Z,75.53
2023-01-21T07:55:33.503Z,75.75
2023-01-21T07:58:02.182Z,74.75
2023-01-21T08:00:30.911Z,74.46
2023-01-21T08:02:59.581Z,74.22
2023-01-21T08:05:28.240Z,74.39
2023-01-21T08:07:58.909Z,73.94
2023-01-21T08:10:27.618Z,73.16
2023-01-21T08:12:57.466Z,73.02
2023-01-21T08:15:26.147Z,73.12
2023-01-21T08:17:55.469Z,73.27
2023-01-21T08:20:24.180Z,72.58
2023-01-21T08:22:52.996Z,72.96
2023-01-21T08:25:21.674Z,73.27
2023-01-21T08:27:50.344Z,72.12
2023-01-21T08:30:19.131Z,71.88
2023-01-21T08:32:47.844Z,72.02
2023-01-21T08:35:16.727Z,71.52
2023-01-21T08:37:45.525Z,70.85
2023-01-21T08:40:14.330Z,70.91
2023-01-21T08:42:43.016Z,71.83
2023-01-21T08:45:13.813Z,72.74
2023-01-21T08:47:44.071Z,72.14
2023-01-21T08:50:12.895Z,70.69
2023-01-21T08:52:41.709Z,70.93
2023-01-21T08:55:11.565Z,71.07
2023-01-21T08:57:40.349Z,70.81
2023-01-21T09:00:10.245Z,70.11
2023-01-21T09:02:38.949Z,69.84
2023-01-21T09:05:08.434Z,70.33
2023-01-21T09:07:37.134Z,70.47
2023-01-21T09:10:06.837Z,69.76
2023-01-21T09:12:35.786Z,69.15
2023-01-21T09:15:05.870Z,69.01
2023-01-21T09:17:35.234Z,69.02
2023-01-21T09:20:04.063Z,69.17
2023-01-21T09:22:32.938Z,69.19
2023-01-21T09:25:10.416Z,68.55
2023-01-21T09:27:39.193Z,67.92
2023-01-21T09:30:08.846Z,67.59
2023-01-21T09:32:37.541Z,67.64
2023-01-21T09:35:06.594Z,66.86
2023-01-21T09:37:35.356Z,67.27
2023-01-21T09:40:04.312Z,67.22
2023-01-21T09:42:34.444Z,67.06
2023-01-21T09:45:04.644Z,67.06
2023-01-21T09:47:40.381Z,66.73
2023-01-21T09:50:23.131Z,66.96
2023-01-21T09:52:54.964Z,67.04
2023-01-21T09:55:44.438Z,66.90
2023-01-21T09:58:41.246Z,66.75
2023-01-21T10:01:19.636Z,66.94
2023-01-21T10:04:23.569Z,66.26
2023-01-21T10:06:55.105Z,66.48
2023-01-21T10:09:36.083Z,66.37
2023-01-21T10:12:22.754Z,66.98
2023-01-21T10:15:11.085Z,65.88
2023-01-21T10:17:55.962Z,66.33
2023-01-21T10:20:28.608Z,66.37
2023-01-21T10:23:06.513Z,66.52
2023-01-21T10:25:37.249Z,66.19
2023-01-21T10:28:16.942Z,66.00
2023-01-21T10:30:51.219Z,65.75
2023-01-21T10:33:22.842Z,65.62
2023-01-21T10:36:12.853Z,65.82
2023-01-21T10:38:54.447Z,65.19
2023-01-21T10:42:00.180Z,65.28
2023-01-21T10:44:50.198Z,65.36
2023-01-21T10:47:54.928Z,66.06
2023-01-21T10:50:56.645Z,65.26
2023-01-21T10:53:44.611Z,64.96
2023-01-21T10:57:29.912Z,66.06
2023-01-21T11:00:03.185Z,65.32
2023-01-21T11:02:34.163Z,65.18
2023-01-21T11:05:05.320Z,65.78
2023-01-21T11:07:40.219Z,64.68
2023-01-21T11:10:09.824Z,64.03
2023-01-21T11:12:38.463Z,63.97
2023-01-21T11:15:16.529Z,63.96
2023-01-21T11:17:49.693Z,64.38
2023-01-21T11:20:42.143Z,63.95
2023-01-21T11:23:28.627Z,63.37
2023-01-21T11:26:10.080Z,63.73
2023-01-21T11:28:38.751Z,64.03
2023-01-21T11:31:27.319Z,63.64
2023-01-21T11:34:04.121Z,63.93
2023-01-21T11:36:33.519Z,63.33
2023-01-21T11:39:10.553Z,63.72
2023-01-21T11:41:39.327Z,62.82
2023-01-21T11:44:19.969Z,61.22
2023-01-21T11:46:49.519Z,63.25
2023-01-21T11:49:28.809Z,62.77
2023-01-21T11:52:17.007Z,62.71
2023-01-21T11:54:46.192Z,62.78
2023-01-21T11:57:33.221Z,61.45
2023-01-21T12:00:20.302Z,61.26
2023-01-21T12:02:59.904Z,60.50
2023-01-21T12:05:36.089Z,61.06
2023-01-21T12:08:07.322Z,62.16
2023-01-21T12:10:46.171Z,60.50
2023-01-21T12:13:38.623Z,60.69
2023-01-21T12:16:23.516Z,59.01
2023-01-21T12:18:57.883Z,58.40
2023-01-21T12:21:50.727Z,58.99
2023-01-21T12:24:23.147Z,59.31
2023-01-21T12:27:28.849Z,58.10
2023-01-21T12:30:43.302Z,57.74
2023-01-21T12:33:18.899Z,55.04
2023-01-21T12:36:02.291Z,55.97
2023-01-21T12:38:49.594Z,56.35
2023-01-21T12:41:31.102Z,56.99
2023-01-21T12:44:31.597Z,55.23
2023-01-21T12:47:11.249Z,55.58
2023-01-21T12:49:51.278Z,55.21
2023-01-21T12:52:52.336Z,54.33
2023-01-21T12:55:58.159Z,55.86
2023-01-21T12:58:44.129Z,55.78
2023-01-21T13:01:33.713Z,56.50
2023-01-21T13:04:18.943Z,57.00
2023-01-21T13:07:02.721Z,55.84
2023-01-21T13:09:49.571Z,57.20
2023-01-21T13:12:29.925Z,59.51
2023-01-21T13:15:21.857Z,60.48
2023-01-21T13:17:57.745Z,61.29
2023-01-21T13:20:27.085Z,62.20
2023-01-21T13:23:21.138Z,63.55
2023-01-21T13:26:01.411Z,64.50
2023-01-21T13:28:41.249Z,64.96
2023-01-21T13:31:15.783Z,65.58
2023-01-21T13:34:06.252Z,65.63
2023-01-21T13:37:21.066Z,66.24
2023-01-21T13:40:09.293Z,67.17
2023-01-21T13:43:25.396Z,67.76
2023-01-21T13:46:17.107Z,68.10
2023-01-21T13:49:19.404Z,68.26
2023-01-21T13:52:11.963Z,68.71
2023-01-21T13:55:19.656Z,68.99
2023-01-21T13:58:05.272Z,69.34
2023-01-21T14:00:55.540Z,69.36
2023-01-21T14:04:13.836Z,69.52
2023-01-21T14:07:11.554Z,69.79
2023-01-21T14:09:55.021Z,69.48
2023-01-21T14:13:01.964Z,69.46
2023-01-21T14:16:10.946Z,69.55
2023-01-21T14:19:04.136Z,69.46
2023-01-21T14:22:13.227Z,69.46
2023-01-21T14:25:36.933Z,68.80
2023-01-21T14:28:17.568Z,68.39
2023-01-21T14:31:16.342Z,68.07
2023-01-21T14:34:04.067Z,67.48
2023-01-21T14:36:54.470Z,67.49
2023-01-21T14:40:13.947Z,67.75
2023-01-21T14:42:53.475Z,67.81
2023-01-21T14:45:25.889Z,67.78
2023-01-21T14:47:58.007Z,68.01
2023-01-21T14:50:54.228Z,67.72
2023-01-21T14:53:27.498Z,67.81
2023-01-21T14:56:16.168Z,68.03
2023-01-21T14:58:48.170Z,68.17
2023-01-21T15:01:46.211Z,68.33
2023-01-21T15:04:30.308Z,69.22
2023-01-21T15:07:03.173Z,69.30
2023-01-21T15:09:44.655Z,70.06
2023-01-21T15:12:25.582Z,70.57
2023-01-21T15:15:02.778Z,70.95
2023-01-21T15:18:05.297Z,71.06
2023-01-21T15:20:43.603Z,70.45
2023-01-21T15:23:30.476Z,70.25
2023-01-21T15:26:11.713Z,70.12
2023-01-21T15:28:49.907Z,70.05
2023-01-21T15:31:25.133Z,70.09
2023-01-21T15:34:04.247Z,70.34
2023-01-21T15:36:50.112Z,70.59
2023-01-21T15:39:32.679Z,70.63
2023-01-21T15:42:31.033Z,70.91
2023-01-21T15:45:23.977Z,71.21
2023-01-21T15:48:41.741Z,71.28
2023-01-21T15:52:07.477Z,72.30
2023-01-21T15:54:56.733Z,72.70
2023-01-21T15:58:15.914Z,72.80
2023-01-21T16:01:01.478Z,72.80
2023-01-21T16:03:57.016Z,72.54
2023-01-21T16:06:59.115Z,72.95
2023-01-21T16:09:59.477Z,72.53
2023-01-21T16:12:58.733Z,73.19
2023-01-21T16:15:45.704Z,73.05
2023-01-21T16:18:44.263Z,73.00
2023-01-21T16:21:18.882Z,73.16
2023-01-21T16:23:58.193Z,72.96
2023-01-21T16:26:31.969Z,73.18
2023-01-21T16:29:02.539Z,73.83
2023-01-21T16:31:46.003Z,73.34
2023-01-21T16:34:16.011Z,73.81
2023-01-21T16:40:09.312Z,74.48
2023-01-21T16:42:44.603Z,74.06
2023-01-21T16:45:26.833Z,74.95
2023-01-21T16:47:59.289Z,75.25
2023-01-21T16:50:34.702Z,75.12
2023-01-21T16:53:11.017Z,74.79
2023-01-21T16:55:49.607Z,75.31
2023-01-21T16:58:31.257Z,75.50
2023-01-21T17:01:16.171Z,75.19
2023-01-21T17:03:48.741Z,75.18
2023-01-21T17:06:32.516Z,75.28
2023-01-21T17:09:09.705Z,75.44
2023-01-21T17:11:47.413Z,75.33
2023-01-21T17:14:35.954Z,76.12
2023-01-21T17:17:09.661Z,76.10
2023-01-21T17:19:44.153Z,76.48
2023-01-21T17:22:26.916Z,77.55
2023-01-21T17:25:26.616Z,78.39
2023-01-21T17:27:59.476Z,79.74
2023-01-21T17:30:34.656Z,80.05
2023-01-21T17:33:04.850Z,80.74
2023-01-21T17:35:33.799Z,81.48
2023-01-21T17:38:06.769Z,82.30
2023-01-21T17:40:48.126Z,82.36
2023-01-21T17:43:25.402Z,81.74
2023-01-21T17:45:57.120Z,82.54
2023-01-21T17:48:30.611Z,83.23
2023-01-21T17:51:17.046Z,85.23
2023-01-21T17:53:59.335Z,85.64
2023-01-21T17:56:48.607Z,84.60
2023-01-21T17:59:38.797Z,83.32
2023-01-21T18:02:18.647Z,84.25
2023-01-21T18:04:47.822Z,86.03
2023-01-21T18:07:33.130Z,85.72
2023-01-21T18:10:03.264Z,83.91
2023-01-21T18:12:32.576Z,84.62
2023-01-21T18:15:04.950Z,83.86
2023-01-21T18:17:34.492Z,84.40
2023-01-21T18:20:04.744Z,84.33
2023-01-21T18:22:36.264Z,85.38
2023-01-21T18:25:07.126Z,85.58
2023-01-21T18:27:47.231Z,86.03
2023-01-21T18:30:24.796Z,85.67
2023-01-21T18:32:55.722Z,86.29
2023-01-21T18:35:32.734Z,86.64
2023-01-21T18:38:04.114Z,87.16
2023-01-21T18:40:33.145Z,87.04
2023-01-21T18:43:06.831Z,87.48
2023-01-21T18:45:49.186Z,87.44
2023-01-21T18:48:22.387Z,87.10
2023-01-21T18:50:51.500Z,87.44
2023-01-21T18:53:21.002Z,87.30
2023-01-21T18:55:56.118Z,88.16
2023-01-21T18:58:31.464Z,88.03
2023-01-21T19:01:08.072Z,88.57
2023-01-21T19:03:46.029Z,89.80
2023-01-21T19:06:17.458Z,88.53
2023-01-21T19:08:48.830Z,89.85
2023-01-21T19:11:18.773Z,89.68
2023-01-21T19:13:49.028Z,88.86
2023-01-21T19:16:22.553Z,88.06
2023-01-21T19:18:52.744Z,87.59
2023-01-21T19:21:22.703Z,87.25
2023-01-21T19:23:51.910Z,87.76
2023-01-21T19:26:26.679Z,86.85
2023-01-21T19:28:57.091Z,86.88
2023-01-21T19:31:27.535Z,86.89
2023-01-21T19:33:57.383Z,86.54
2023-01-21T19:36:29.274Z,87.10
2023-01-21T19:39:01.825Z,86.52
2023-01-21T19:41:31.918Z,86.43
2023-01-21T19:44:01.066Z,87.51
2023-01-21T19:46:32.230Z,86.56
2023-01-21T19:49:11.401Z,86.33
2023-01-21T19:51:43.754Z,86.94
2023-01-21T19:54:12.514Z,85.87
2023-01-21T19:56:42.529Z,86.10
2023-01-21T19:59:16.224Z,85.80
2023-01-21T20:01:46.072Z,86.37
2023-01-21T20:04:16.165Z,86.64
2023-01-21T20:06:47.421Z,87.01
2023-01-21T20:09:19.283Z,87.32
2023-01-21T20:11:54.561Z,87.75
2023-01-21T20:14:23.533Z,87.95
2023-01-21T20:16:54.347Z,88.44
2023-01-21T20:19:23.146Z,89.06
2023-01-21T20:22:01.254Z,89.66
2023-01-21T20:24:34.134Z,88.29
2023-01-21T20:27:06.619Z,87.71
2023-01-21T20:29:44.423Z,87.99
2023-01-21T20:32:13.304Z,89.24
2023-01-21T20:34:41.953Z,89.72
2023-01-21T20:37:14.426Z,90.48
2023-01-21T20:39:42.842Z,91.36
2023-01-21T20:42:12.536Z,91.09
2023-01-21T20:44:41.161Z,89.62
2023-01-21T20:47:11.413Z,90.27
2023-01-21T20:49:40.020Z,89.28
2023-01-21T20:52:12.527Z,88.85
2023-01-21T20:54:45.411Z,89.44
2023-01-21T20:57:14.136Z,88.41
2023-01-21T20:59:42.882Z,88.16
2023-01-21T21:02:12.483Z,87.97
2023-01-21T21:04:41.579Z,87.26
2023-01-21T21:07:16.512Z,86.97
2023-01-21T21:09:45.201Z,86.81
2023-01-21T21:12:13.823Z,86.69
2023-01-21T21:14:42.841Z,86.79
2023-01-21T21:17:14.474Z,87.28
2023-01-21T21:19:43.123Z,88.89
2023-01-21T21:22:11.812Z,88.01
2023-01-21T21:24:40.461Z,89.99
2023-01-21T21:27:12.323Z,89.72
2023-01-21T21:29:40.973Z,90.40
2023-01-21T21:32:13.791Z,88.16
2023-01-21T21:34:42.962Z,88.16
2023-01-21T21:37:13.779Z,88.27
2023-01-21T21:39:42.383Z,90.10
2023-01-21T21:42:32.351Z,88.44
2023-01-21T21:45:01.069Z,89.29
2023-01-21T21:47:48.063Z,90.33
2023-01-21T21:53:48.122Z,91.11
2023-01-21T21:56:23.436Z,90.99
2023-01-21T21:58:52.435Z,90.51
2023-01-21T22:01:25.355Z,90.22
2023-01-21T22:03:54.152Z,90.34
2023-01-21T22:06:22.895Z,89.62
2023-01-21T22:08:55.589Z,89.88
2023-01-21T22:11:24.475Z,89.75
2023-01-21T22:13:57.248Z,91.34
2023-01-21T22:16:28.951Z,92.84
2023-01-21T22:18:59.493Z,92.44
2023-01-21T22:21:34.235Z,90.67
2023-01-21T22:24:06.887Z,90.23
2023-01-21T22:26:35.921Z,90.23
2023-01-21T22:29:05.905Z,90.43
2023-01-21T22:31:34.923Z,90.15
2023-01-21T22:34:03.881Z,90.07
2023-01-21T22:36:32.822Z,89.53
2023-01-21T22:39:01.440Z,89.28
2023-01-21T22:41:30.344Z,89.86
2023-01-21T22:43:59.138Z,90.04
2023-01-21T22:46:30.274Z,90.30
2023-01-21T22:48:58.912Z,89.77
2023-01-21T22:51:28.000Z,89.46
2023-01-21T22:53:57.897Z,89.29
2023-01-21T22:56:51.469Z,89.04
2023-01-21T22:59:15.517Z,88.50
2023-01-21T23:01:44.148Z,88.29
2023-01-21T23:04:12.994Z,88.46
2023-01-21T23:06:44.861Z,87.86
2023-01-21T23:09:18.246Z,88.98
2023-01-21T23:11:46.883Z,89.88
2023-01-21T23:14:16.752Z,90.19
2023-01-21T23:16:46.306Z,90.22
2023-01-21T23:19:15.529Z,89.23
2023-01-21T23:21:44.312Z,89.37
2023-01-21T23:24:12.981Z,89.02
2023-01-21T23:26:42.265Z,88.70
2023-01-21T23:29:10.883Z,90.40
2023-01-21T23:31:39.492Z,90.51
2023-01-21T23:34:08.096Z,90.87
2023-01-21T23:36:36.736Z,91.89
2023-01-21T23:39:05.554Z,91.34
2023-01-21T23:41:34.160Z,91.34
2023-01-21T23:44:03.635Z,91.71
2023-01-21T23:46:32.433Z,92.81
2023-01-21T23:49:01.183Z,93.79
2023-01-21T23:51:29.887Z,94.53
2023-01-21T23:53:58.595Z,95.13
2023-01-21T23:56:27.320Z,95.58
2023-01-21T23:58:56.007Z,94.38
